Time;durP1;ratioP1;P1;durP2;ratioP2;P2;SDS_P1;SDS_P2;PMS_P1;PMS_P2;Temp;Humidity;BMP_temperature;BMP_pressure;BME280_temperature;BME280_humidity;BME280_pressure;Samples;Min_cycle;Max_cycle;Signal;HPM_P1;HPM_P2
2022/10/04 04:06:46;;;;;;;2.00;1.20;;;;;;;11.08;71.64;101557.78;5106201;27;20395;-80
2022/10/04 04:09:19;;;;;;;5.88;1.80;;;;;;;11.19;70.96;101543.53;5091975;28;20063;-80
2022/10/04 04:11:44;;;;;;;;;;;;;;;11.46;70.37;101564.16;5090814;28;20035;-81
2022/10/04 04:14:14;;;;;;;1.73;1.33;;;;;;;11.52;69.19;101556.16;5089637;28;19912;-83
2022/10/04 04:16:40;;;;;;;2.55;1.95;;;;;;;11.72;68.91;101565.78;5071914;28;20055;-80
2022/10/04 04:19:10;;;;;;;6.55;1.58;;;;;;;11.84;68.05;101569.66;5087937;28;20020;-84
2022/10/04 04:21:36;;;;;;;4.57;1.77;;;;;;;11.83;68.00;101544.63;5089303;28;21644;-80
2022/10/04 04:24:07;;;;;;;2.63;1.83;;;;;;;11.96;67.60;101556.19;5106725;28;20027;-86
2022/10/04 04:26:34;;;;;;;3.33;1.88;;;;;;;12.01;67.07;101562.06;5090468;28;20107;-84
2022/10/04 04:29:21;;;;;;;5.13;2.33;;;;;;;12.21;67.21;101556.06;5089686;28;20032;-85
2022/10/04 04:31:59;;;;;;;3.58;2.28;;;;;;;12.25;66.77;101561.06;5110493;28;20023;-94
2022/10/04 04:34:28;;;;;;;7.57;3.70;;;;;;;12.34;66.60;101575.41;5109733;28;20020;-90
2022/10/04 04:36:58;;;;;;;4.10;2.80;;;;;;;12.39;66.44;101580.38;5093077;28;20048;-95
2022/10/04 04:39:44;;;;;;;3.95;2.45;;;;;;;12.58;66.40;101589.09;5110257;28;20032;-92
2022/10/04 04:42:09;;;;;;;6.97;2.90;;;;;;;12.61;66.36;101595.03;5034340;28;20057;-91
2022/10/04 04:44:39;;;;;;;6.85;3.20;;;;;;;12.62;65.44;101585.50;5065206;28;20059;-91
2022/10/04 04:47:06;;;;;;;3.72;2.72;;;;;;;12.41;64.96;101570.81;5054957;28;20103;-88
2022/10/04 04:49:32;;;;;;;3.65;2.13;;;;;;;12.57;65.45;101590.84;5052651;28;20044;-90
2022/10/04 04:51:57;;;;;;;2.50;2.00;;;;;;;12.52;64.99;101579.00;5032229;28;20460;-86
2022/10/04 04:54:24;;;;;;;3.58;2.00;;;;;;;12.31;64.80;101560.81;5049298;28;20029;-83
2022/10/04 04:56:51;;;;;;;2.60;1.65;;;;;;;12.54;64.85;101611.75;5065083;28;20077;-95
2022/10/04 04:59:16;;;;;;;3.25;1.90;;;;;;;12.53;65.46;101606.63;5055143;28;20486;-92
2022/10/04 05:01:43;;;;;;;4.10;2.33;;;;;;;12.53;65.01;101611.81;5062391;28;20024;-89
2022/10/04 05:04:11;;;;;;;4.78;2.42;;;;;;;12.64;64.58;101604.44;5052717;28;20036;-92
2022/10/04 05:06:38;;;;;;;3.50;2.15;;;;;;;12.57;64.54;101603.00;5079742;28;20020;-84
2022/10/04 05:09:04;;;;;;;4.32;2.65;;;;;;;12.61;65.04;101609.75;5068339;28;20024;-82
2022/10/04 05:11:38;;;;;;;3.75;2.40;;;;;;;12.53;65.08;101617.00;5067142;28;20501;-85
2022/10/04 05:14:09;;;;;;;6.97;2.97;;;;;;;12.54;65.21;101618.69;5050864;28;20060;-93
2022/10/04 05:16:40;;;;;;;5.30;1.70;;;;;;;12.42;65.56;101616.63;5051331;28;20060;-95
2022/10/04 05:19:27;;;;;;;3.78;2.05;;;;;;;12.51;64.80;101634.41;5052318;28;20025;-91
2022/10/04 05:21:54;;;;;;;5.43;2.28;;;;;;;12.45;64.97;101619.91;5038496;28;20079;-89
2022/10/04 05:24:26;;;;;;;4.18;2.20;;;;;;;12.67;64.60;101645.84;5034535;28;20025;-83
2022/10/04 05:26:53;;;;;;;;;;;;;;;12.68;64.35;101647.53;5060932;28;20159;-86
2022/10/04 05:29:20;;;;;;;2.47;1.60;;;;;;;12.69;65.45;101638.00;5034959;28;19977;-88
2022/10/04 05:31:50;;;;;;;4.90;2.22;;;;;;;12.60;64.04;101639.22;5035979;28;20126;-85
2022/10/04 05:34:23;;;;;;;5.53;2.63;;;;;;;12.70;64.15;101655.28;5052920;28;20032;-87
2022/10/04 05:37:05;;;;;;;5.20;2.70;;;;;;;12.69;64.84;101638.84;5071448;28;20060;-82
2022/10/04 05:39:45;;;;;;;5.70;2.67;;;;;;;12.91;63.44;101660.41;5070542;28;20417;-85
2022/10/04 05:42:23;;;;;;;19.33;11.63;;;;;;;12.86;63.86;101653.69;5049033;28;20493;-87
2022/10/04 05:44:55;;;;;;;4.28;2.10;;;;;;;13.03;63.44;101653.84;5026982;28;20082;-87
2022/10/04 05:47:27;;;;;;;;;;;;;;;13.18;62.61;101667.94;5054439;28;20055;-90
2022/10/04 05:49:54;;;;;;;4.25;2.53;;;;;;;13.20;62.59;101671.34;5055703;28;20007;-89
2022/10/04 05:52:37;;;;;;;10.43;3.55;;;;;;;13.15;62.75;101660.25;5042991;28;20032;-86
2022/10/04 05:55:15;;;;;;;7.45;2.67;;;;;;;13.22;62.29;101677.31;5037743;28;20082;-95
2022/10/04 05:58:05;;;;;;;7.97;3.15;;;;;;;13.33;62.61;101682.88;5051251;28;20041;-94
2022/10/04 06:01:07;;;;;;;2.50;2.20;;;;;;;13.42;61.89;101673.84;5075609;28;20029;-95
2022/10/04 06:03:59;;;;;;;3.65;2.70;;;;;;;13.55;61.74;101687.97;5022354;28;20501;-82
2022/10/04 06:06:34;;;;;;;4.23;2.47;;;;;;;13.45;61.05;101665.91;5062181;28;20098;-81
2022/10/04 06:09:11;;;;;;;6.90;2.97;;;;;;;13.67;61.04;101697.00;5034497;28;20035;-80
2022/10/04 06:11:49;;;;;;;4.15;2.72;;;;;;;13.60;60.59;101685.19;5053902;28;20090;-83
2022/10/04 06:14:14;;;;;;;3.92;2.83;;;;;;;13.58;60.73;101692.22;5062842;28;20028;-88
2022/10/04 06:17:03;;;;;;;7.10;3.40;;;;;;;13.72;60.85;101689.81;5065279;28;20054;-90
2022/10/04 06:19:53;;;;;;;5.60;3.83;;;;;;;13.89;60.71;101687.31;5042419;28;20052;-85
2022/10/04 06:22:22;;;;;;;4.15;2.85;;;;;;;13.89;60.71;101692.50;5062309;28;20047;-94
2022/10/04 06:25:05;;;;;;;3.13;2.17;;;;;;;13.92;59.35;101681.97;5053510;28;20041;-93
2022/10/04 06:27:44;;;;;;;5.70;2.97;;;;;;;13.98;59.03;101681.69;5035198;28;20572;-92
2022/10/04 06:30:17;;;;;;;3.20;2.20;;;;;;;14.09;59.47;101693.34;5037980;28;20036;-91
2022/10/04 06:32:58;;;;;;;5.15;3.65;;;;;;;14.14;57.98;101701.78;5035397;28;20094;-84
2022/10/04 06:35:41;;;;;;;5.38;2.88;;;;;;;14.16;57.15;101700.81;5067373;28;20024;-83
2022/10/04 06:38:43;;;;;;;3.42;2.38;;;;;;;14.18;57.70;101708.53;5059162;28;20055;-81
2022/10/04 06:41:38;;;;;;;5.15;2.63;;;;;;;14.30;57.55;101705.34;5070150;28;20060;-90
2022/10/04 06:44:11;;;;;;;5.30;2.80;;;;;;;14.21;57.24;101677.16;4966139;28;20046;-96
2022/10/04 06:46:41;;;;;;;8.68;2.70;;;;;;;14.55;57.68;101708.53;5055990;28;20025;-90
2022/10/04 06:49:41;;;;;;;3.97;2.25;;;;;;;14.77;56.89;101712.69;5050921;28;20112;-90
2022/10/04 06:52:26;;;;;;;5.38;2.65;;;;;;;14.89;55.21;101720.72;5050165;28;20035;-91
2022/10/04 06:55:07;;;;;;;4.25;2.10;;;;;;;14.92;55.96;101719.72;5042364;28;20037;-94
2022/10/04 06:57:58;;;;;;;3.75;2.35;;;;;;;15.02;56.13;101727.91;5038481;28;20036;-93
2022/10/04 07:00:28;;;;;;;4.60;2.33;;;;;;;15.16;56.51;101735.91;5058352;28;20033;-95
2022/10/04 07:03:03;;;;;;;3.40;2.28;;;;;;;15.10;54.26;101721.41;5052818;28;20024;-95
2022/10/04 07:05:31;;;;;;;4.20;2.17;;;;;;;15.27;54.27;101748.41;5035487;28;20048;-90
2022/10/04 07:08:32;;;;;;;9.15;5.05;;;;;;;15.38;54.15;101746.09;5048813;28;20026;-92
2022/10/04 07:11:27;;;;;;;11.27;4.53;;;;;;;15.43;53.99;101744.06;5047589;28;20379;-86
2022/10/04 07:14:01;;;;;;;6.53;2.65;;;;;;;15.33;53.09;101733.25;5048182;28;20064;-94
2022/10/04 07:16:31;;;;;;;6.30;3.15;;;;;;;15.47;53.94;101740.41;5047403;28;20119;-80
2022/10/04 07:19:16;;;;;;;5.30;3.25;;;;;;;15.61;53.17;101745.75;5033845;28;20040;-84
2022/10/04 07:21:47;;;;;;;4.63;2.60;;;;;;;15.73;53.26;101752.97;5053722;28;20039;-87
2022/10/04 07:24:19;;;;;;;3.97;2.35;;;;;;;15.81;53.07;101755.16;5049835;28;20025;-81
2022/10/04 07:26:46;;;;;;;5.35;3.63;;;;;;;15.95;53.21;101746.59;5038232;28;20029;-84
2022/10/04 07:29:21;;;;;;;4.53;2.95;;;;;;;15.92;52.08;101734.53;5037969;28;20029;-92
2022/10/04 07:32:22;;;;;;;7.75;4.63;;;;;;;16.18;52.06;101761.84;5040734;28;20040;-82
2022/10/04 07:35:15;;;;;;;7.70;4.20;;;;;;;16.20;50.53;101765.22;5042192;28;20061;-82
2022/10/04 07:38:04;;;;;;;3.28;1.77;;;;;;;16.11;49.93;101767.47;5038000;28;20027;-80
2022/10/04 07:40:34;;;;;;;3.33;2.15;;;;;;;16.13;50.97;101768.28;5067743;28;20032;-81
2022/10/04 07:43:21;;;;;;;3.50;2.08;;;;;;;16.26;49.94;101761.44;5064531;28;20087;-82
2022/10/04 07:45:48;;;;;;;3.42;2.17;;;;;;;16.29;49.13;101743.81;5049154;28;20205;-85
2022/10/04 07:48:22;;;;;;;4.07;2.35;;;;;;;16.41;48.87;101767.56;5055580;28;20082;-83
2022/10/04 07:51:15;;;;;;;5.72;2.00;;;;;;;16.31;48.81;101765.47;5053426;28;20108;-80
2022/10/04 07:54:01;;;;;;;4.25;2.10;;;;;;;16.38;49.17;101770.38;5039154;28;20115;-80
2022/10/04 07:56:36;;;;;;;5.63;2.67;;;;;;;16.39;49.23;101733.72;5067554;28;20443;-84
2022/10/04 07:59:19;;;;;;;7.70;2.70;;;;;;;16.60;48.24;101773.47;5045178;28;20072;-86
2022/10/04 08:02:00;;;;;;;7.18;2.65;;;;;;;16.71;47.93;101768.50;5040377;28;20521;-81
2022/10/04 08:04:29;;;;;;;5.60;2.55;;;;;;;16.61;48.57;101742.03;5046616;28;20053;-86
2022/10/04 08:07:02;;;;;;;11.85;3.05;;;;;;;16.77;47.87;101762.94;5045998;28;20025;-85
2022/10/04 08:09:41;;;;;;;4.80;2.67;;;;;;;16.90;47.65;101769.16;5047759;28;20044;-83
2022/10/04 08:12:28;;;;;;;2.90;2.00;;;;;;;17.02;47.53;101766.78;5052103;28;20060;-80
2022/10/04 08:15:01;;;;;;;4.25;2.25;;;;;;;17.05;46.88;101763.97;5049146;28;20391;-83
2022/10/04 08:17:45;;;;;;;10.90;2.53;;;;;;;17.02;47.29;101756.31;5046112;28;20033;-86
2022/10/04 08:20:26;;;;;;;3.72;2.17;;;;;;;17.21;46.75;101759.56;5034690;28;20029;-87
2022/10/04 08:23:07;;;;;;;3.35;2.45;;;;;;;17.08;46.34;101745.50;5033786;28;20033;-89
2022/10/04 08:25:39;;;;;;;4.93;2.13;;;;;;;17.19;46.99;101758.78;5051620;28;20033;-82
2022/10/04 08:31:11;;;;;;;7.88;3.15;;;;;;;17.29;46.82;101754.69;5064497;28;20040;-87
2022/10/04 08:33:43;;;;;;;4.28;2.58;;;;;;;17.32;46.68;101753.69;5038394;28;20040;-81
2022/10/04 08:36:27;;;;;;;2.58;1.70;;;;;;;17.38;46.50;101756.75;5064480;28;20545;-81
2022/10/04 08:38:56;;;;;;;5.47;2.85;;;;;;;17.42;46.70;101757.44;5035245;28;20033;-90
2022/10/04 08:41:46;;;;;;;4.45;2.42;;;;;;;17.52;47.03;101744.66;5048429;28;20239;-81
2022/10/04 08:44:33;;;;;;;6.25;3.20;;;;;;;17.52;47.15;101757.72;5068922;28;20028;-80
2022/10/04 08:47:35;;;;;;;2.78;1.77;;;;;;;17.46;46.54;101754.53;5069155;28;20510;-81
2022/10/04 08:50:09;;;;;;;4.68;2.42;;;;;;;17.52;46.36;101755.13;5054811;28;20029;-89
2022/10/04 08:52:40;;;;;;;4.40;2.15;;;;;;;17.54;45.89;101763.72;5048290;28;20182;-88
2022/10/04 08:55:14;;;;;;;6.45;2.15;;;;;;;17.34;46.42;101762.28;5059148;28;20029;-88
2022/10/04 08:58:01;;;;;;;4.90;2.20;;;;;;;17.58;46.05;101762.56;5049413;28;20525;-87
2022/10/04 09:00:51;;;;;;;6.65;2.03;;;;;;;17.28;44.86;101734.69;5063909;28;20032;-81
2022/10/04 09:03:45;;;;;;;5.07;2.85;;;;;;;17.49;45.33;101779.66;5053700;28;20045;-80
2022/10/04 09:06:36;;;;;;;2.40;1.70;;;;;;;17.49;45.18;101772.66;5019810;28;20059;-80
2022/10/04 09:09:43;;;;;;;4.00;2.08;;;;;;;17.72;44.75;101773.09;5037380;28;20153;-88
2022/10/04 09:12:33;;;;;;;3.92;2.53;;;;;;;17.71;44.70;101766.19;5021128;28;20067;-88
2022/10/04 09:15:01;;;;;;;4.57;2.00;;;;;;;17.72;44.79;101775.72;5048189;28;20544;-84
2022/10/04 09:17:32;;;;;;;10.45;4.22;;;;;;;17.76;44.97;101779.81;5059752;28;20029;-89
2022/10/04 09:20:31;;;;;;;4.47;2.17;;;;;;;17.56;43.71;101751.38;5054456;28;20029;-86
2022/10/04 09:23:03;;;;;;;3.60;2.10;;;;;;;17.76;45.01;101778.03;5050919;28;20028;-93
2022/10/04 09:25:48;;;;;;;5.10;3.15;;;;;;;17.86;45.17;101780.94;5053536;28;20029;-83
2022/10/04 09:28:42;;;;;;;5.90;2.55;;;;;;;17.93;44.89;101766.53;5067367;28;20025;-78
2022/10/04 09:31:48;;;;;;;6.68;2.60;;;;;;;17.84;45.04;101743.56;5008266;28;20055;-88
2022/10/04 09:34:43;;;;;;;4.85;2.05;;;;;;;18.12;43.32;101778.50;5044449;28;20025;-84
2022/10/04 09:37:21;;;;;;;5.60;2.50;;;;;;;18.11;43.69;101758.50;5063094;28;20032;-89
2022/10/04 09:40:24;;;;;;;5.38;2.17;;;;;;;18.30;44.38;101779.97;5050037;28;20033;-82
2022/10/04 09:43:20;;;;;;;4.18;1.60;;;;;;;18.36;43.30;101766.47;5052844;28;20123;-87
2022/10/04 09:46:15;;;;;;;4.45;2.20;;;;;;;18.48;43.49;101768.31;4980252;28;20051;-86
2022/10/04 09:48:53;;;;;;;3.90;2.25;;;;;;;18.51;43.87;101776.00;5069743;28;20024;-88
2022/10/04 09:51:56;;;;;;;2.45;1.60;;;;;;;18.60;43.33;101767.53;5058839;28;20163;-85
2022/10/04 09:54:37;;;;;;;4.53;2.00;;;;;;;18.62;43.29;101776.13;5051309;28;20555;-90
2022/10/04 09:57:27;;;;;;;5.53;2.80;;;;;;;18.62;42.50;101770.88;5068140;28;20043;-87
2022/10/04 09:59:56;;;;;;;5.18;2.42;;;;;;;18.68;42.66;101768.81;5040037;28;20071;-84
2022/10/04 10:02:55;;;;;;;5.32;2.45;;;;;;;18.76;42.69;101777.03;5066657;28;20025;-82
2022/10/04 10:05:35;;;;;;;5.93;2.08;;;;;;;18.79;42.17;101767.22;5050140;28;20053;-86
2022/10/04 10:08:19;;;;;;;5.93;2.65;;;;;;;18.75;41.64;101780.59;5070534;28;20040;-83
2022/10/04 10:14:37;;;;;;;5.65;2.88;;;;;;;18.89;42.43;101763.06;5044999;28;20097;-80
2022/10/04 10:17:20;;;;;;;3.70;2.08;;;;;;;19.04;41.56;101770.84;5021122;28;20116;-79
2022/10/04 10:20:02;;;;;;;10.50;3.03;;;;;;;19.01;42.34;101769.25;5046414;28;20479;-81
2022/10/04 10:22:49;;;;;;;5.17;2.03;;;;;;;18.95;41.96;101764.41;5053286;28;20028;-83
2022/10/04 10:25:34;;;;;;;6.05;1.80;;;;;;;18.97;42.30;101783.50;5067519;28;20028;-82
2022/10/04 10:28:24;;;;;;;3.80;2.10;;;;;;;19.01;41.26;101771.88;5040767;28;20021;-79
2022/10/04 10:30:49;;;;;;;5.18;2.10;;;;;;;19.01;41.67;101750.06;5069388;28;20070;-82
2022/10/04 10:33:53;;;;;;;5.70;2.17;;;;;;;19.31;41.82;101773.41;5069339;28;20436;-83
2022/10/04 10:36:46;;;;;;;5.47;2.67;;;;;;;19.22;40.73;101761.75;5044643;28;20067;-82
2022/10/04 10:39:37;;;;;;;4.35;2.08;;;;;;;19.22;40.86;101774.00;5057844;28;20024;-93
2022/10/04 10:42:09;;;;;;;5.63;2.13;;;;;;;19.32;41.47;101768.03;5048630;28;20029;-84
2022/10/04 10:44:59;;;;;;;3.58;1.92;;;;;;;19.32;40.82;101775.06;5051010;28;20032;-89
2022/10/04 10:47:30;;;;;;;2.53;1.33;;;;;;;19.08;40.73;101744.31;5066699;28;20142;-85
2022/10/04 10:50:29;;;;;;;3.90;1.85;;;;;;;19.19;41.17;101768.03;5055973;28;20111;-83
2022/10/04 10:53:29;;;;;;;4.93;1.75;;;;;;;19.25;40.73;101769.38;5070317;28;20036;-88
2022/10/04 10:56:25;;;;;;;6.15;3.10;;;;;;;19.13;41.06;101771.06;5064087;28;20099;-82
2022/10/04 10:59:11;;;;;;;2.25;1.45;;;;;;;19.15;41.22;101768.31;5065486;28;20040;-86
2022/10/04 11:01:52;;;;;;;3.03;1.50;;;;;;;19.29;40.74;101762.19;5062244;28;20069;-82
2022/10/04 11:04:25;;;;;;;5.13;2.28;;;;;;;19.49;40.33;101761.66;5047783;28;20086;-83
2022/10/04 11:07:16;;;;;;;4.35;1.95;;;;;;;19.46;40.73;101772.34;5048668;28;20508;-89
2022/10/04 11:09:50;;;;;;;3.65;2.10;;;;;;;19.46;40.14;101761.84;5051546;28;20035;-85
2022/10/04 11:12:27;;;;;;;3.78;1.92;;;;;;;19.51;40.01;101762.38;5058968;28;20021;-84
2022/10/04 11:15:05;;;;;;;3.45;1.88;;;;;;;19.59;39.22;101786.34;5051651;28;20050;-84
2022/10/04 11:18:04;;;;;;;2.08;1.48;;;;;;;19.51;40.55;101774.66;5066945;28;20028;-84
2022/10/04 11:20:54;;;;;;;3.35;1.60;;;;;;;19.49;40.33;101773.00;5050249;28;20029;-84
2022/10/04 11:23:51;;;;;;;6.32;3.70;;;;;;;19.63;40.91;101764.19;5052942;28;20029;-84
2022/10/04 11:26:39;;;;;;;3.10;1.98;;;;;;;19.72;40.19;101774.06;5060572;28;20033;-81
2022/10/04 11:29:19;;;;;;;3.20;1.88;;;;;;;19.64;39.46;101759.78;5052127;28;20425;-87
2022/10/04 11:31:59;;;;;;;4.05;2.70;;;;;;;19.66;39.71;101774.47;5046927;28;20113;-81
2022/10/04 11:34:34;;;;;;;4.13;2.17;;;;;;;19.52;40.34;101777.19;5049265;28;20084;-90
2022/10/04 11:37:29;;;;;;;3.70;1.83;;;;;;;19.39;40.52;101755.34;5052938;28;20411;-86
2022/10/04 11:40:08;;;;;;;3.47;2.03;;;;;;;19.58;40.14;101774.19;5041737;28;20036;-88
2022/10/04 11:42:52;;;;;;;6.20;3.30;;;;;;;19.65;40.11;101751.78;5068456;28;20523;-85
2022/10/04 11:45:20;;;;;;;4.55;2.38;;;;;;;19.63;40.50;101748.44;5049435;28;20104;-79
2022/10/04 11:47:45;;;;;;;8.52;2.58;;;;;;;19.53;40.78;101764.91;5051837;28;20032;-83
2022/10/04 11:50:27;;;;;;;4.28;2.55;;;;;;;19.56;40.05;101757.69;5057939;28;20021;-87
2022/10/04 11:53:02;;;;;;;3.88;2.42;;;;;;;19.57;40.78;101764.63;5052991;28;20417;-80
2022/10/04 11:55:53;;;;;;;7.25;4.13;;;;;;;19.71;41.09;101772.38;5068180;28;20070;-80
2022/10/04 11:58:31;;;;;;;25.02;10.52;;;;;;;19.62;41.31;101775.63;5068283;28;20032;-80
2022/10/04 12:01:15;;;;;;;4.50;2.70;;;;;;;19.71;40.35;101776.78;5061966;28;20029;-89
2022/10/04 12:03:59;;;;;;;4.40;2.45;;;;;;;19.76;39.75;101770.28;5045338;28;20512;-87
2022/10/04 12:06:40;;;;;;;6.35;2.30;;;;;;;19.82;40.24;101769.00;5043559;28;20114;-85
2022/10/04 12:09:23;;;;;;;4.75;2.35;;;;;;;19.42;40.85;101739.41;5043927;28;20025;-81
2022/10/04 12:15:11;;;;;;;4.70;2.15;;;;;;;19.19;41.03;101780.31;5046640;28;20083;-82
2022/10/04 12:17:57;;;;;;;4.45;2.70;;;;;;;19.07;40.96;101786.34;5049165;28;20478;-83
2022/10/04 12:20:45;;;;;;;3.92;2.10;;;;;;;19.04;41.17;101790.03;5049223;28;20103;-85
2022/10/04 12:23:26;;;;;;;2.90;1.80;;;;;;;18.54;40.41;101764.47;5049996;28;20098;-82
2022/10/04 12:26:31;;;;;;;3.35;1.80;;;;;;;18.71;40.56;101800.09;5047623;28;20502;-81
2022/10/04 12:29:16;;;;;;;5.10;2.60;;;;;;;18.72;40.86;101793.91;5054019;28;20025;-81
2022/10/04 12:31:44;;;;;;;3.53;2.00;;;;;;;18.65;40.94;101796.09;5053068;28;20486;-80
2022/10/04 12:34:16;;;;;;;4.40;2.35;;;;;;;18.70;41.70;101804.50;5035383;28;20032;-82
2022/10/04 12:37:15;;;;;;;7.20;2.53;;;;;;;18.54;42.13;101794.13;5047232;28;20471;-88
2022/10/04 12:39:56;;;;;;;5.60;2.80;;;;;;;18.45;42.37;101788.63;5033405;28;20026;-80
2022/10/04 12:42:44;;;;;;;8.13;2.47;;;;;;;18.41;43.27;101795.00;5033584;28;20071;-88
2022/10/04 12:45:48;;;;;;;8.05;2.90;;;;;;;18.46;43.82;101788.53;5049713;28;20060;-86
2022/10/04 12:48:42;;;;;;;4.72;2.60;;;;;;;18.41;43.63;101788.00;4974558;28;20074;-87
2022/10/04 12:51:17;;;;;;;3.20;2.05;;;;;;;18.49;42.39;101800.63;5049933;28;20033;-89
2022/10/04 12:54:24;;;;;;;3.00;2.20;;;;;;;18.45;41.98;101794.72;5051598;28;20048;-90
2022/10/04 12:56:59;;;;;;;3.35;2.10;;;;;;;18.37;41.49;101794.34;5041858;28;20511;-85
2022/10/04 13:00:04;;;;;;;4.57;2.40;;;;;;;18.29;40.97;101784.38;5052677;28;20029;-82
2022/10/04 13:02:36;;;;;;;4.82;2.10;;;;;;;18.41;41.55;101803.72;5037904;28;20406;-88
2022/10/04 13:05:32;;;;;;;2.53;1.52;;;;;;;18.38;41.02;101805.66;5053538;28;20059;-80
